sensor_id;sensor_type;location;lat;lon;timestamp;P1;durP1;ratioP1;P2;durP2;ratioP2
7685;SDS011;3885;51.474;-2.576;2022-09-11T00:01:18;8.37;;;4.93;;
7685;SDS011;3885;51.474;-2.576;2022-09-11T00:03:46;7.50;;;6.03;;
7685;SDS011;3885;51.474;-2.576;2022-09-11T00:06:14;10.43;;;5.57;;
7685;SDS011;3885;51.474;-2.576;2022-09-11T00:08:43;11.80;;;6.53;;
7685;SDS011;3885;51.474;-2.576;2022-09-11T00:11:12;9.67;;;5.60;;
7685;SDS011;3885;51.474;-2.576;2022-09-11T00:13:40;9.30;;;5.57;;
7685;SDS011;3885;51.474;-2.576;2022-09-11T00:16:16;10.63;;;6.40;;
7685;SDS011;3885;51.474;-2.576;2022-09-11T00:18:44;8.47;;;5.70;;
7685;SDS011;3885;51.474;-2.576;2022-09-11T00:21:11;6.97;;;5.83;;
7685;SDS011;3885;51.474;-2.576;2022-09-11T00:23:38;10.67;;;6.30;;
7685;SDS011;3885;51.474;-2.576;2022-09-11T00:26:05;11.17;;;7.30;;
7685;SDS011;3885;51.474;-2.576;2022-09-11T00:28:32;15.20;;;7.77;;
7685;SDS011;3885;51.474;-2.576;2022-09-11T00:31:02;14.97;;;7.20;;
7685;SDS011;3885;51.474;-2.576;2022-09-11T00:33:33;16.63;;;7.10;;
7685;SDS011;3885;51.474;-2.576;2022-09-11T00:36:02;26.13;;;6.20;;
7685;SDS011;3885;51.474;-2.576;2022-09-11T00:38:30;12.17;;;7.50;;
7685;SDS011;3885;51.474;-2.576;2022-09-11T00:41:00;20.93;;;6.13;;
7685;SDS011;3885;51.474;-2.576;2022-09-11T00:43:28;9.90;;;5.83;;
7685;SDS011;3885;51.474;-2.576;2022-09-11T00:45:56;17.13;;;7.70;;
7685;SDS011;3885;51.474;-2.576;2022-09-11T00:48:25;23.90;;;9.50;;
7685;SDS011;3885;51.474;-2.576;2022-09-11T00:50:55;19.47;;;10.07;;
7685;SDS011;3885;51.474;-2.576;2022-09-11T00:53:24;17.77;;;8.53;;
7685;SDS011;3885;51.474;-2.576;2022-09-11T00:55:55;16.57;;;8.47;;
7685;SDS011;3885;51.474;-2.576;2022-09-11T00:58:24;15.40;;;8.90;;
7685;SDS011;3885;51.474;-2.576;2022-09-11T01:00:52;18.40;;;9.30;;
7685;SDS011;3885;51.474;-2.576;2022-09-11T01:03:21;17.97;;;7.43;;
7685;SDS011;3885;51.474;-2.576;2022-09-11T01:05:48;13.37;;;8.43;;
7685;SDS011;3885;51.474;-2.576;2022-09-11T01:08:17;13.33;;;8.37;;
7685;SDS011;3885;51.474;-2.576;2022-09-11T01:10:49;15.77;;;8.43;;
7685;SDS011;3885;51.474;-2.576;2022-09-11T01:13:25;15.83;;;9.63;;
7685;SDS011;3885;51.474;-2.576;2022-09-11T01:15:54;13.17;;;7.87;;
7685;SDS011;3885;51.474;-2.576;2022-09-11T01:18:28;21.53;;;9.53;;
7685;SDS011;3885;51.474;-2.576;2022-09-11T01:21:07;19.20;;;7.70;;
7685;SDS011;3885;51.474;-2.576;2022-09-11T01:23:50;13.10;;;6.40;;
7685;SDS011;3885;51.474;-2.576;2022-09-11T01:26:32;17.13;;;8.03;;
7685;SDS011;3885;51.474;-2.576;2022-09-11T01:29:04;28.53;;;12.03;;
7685;SDS011;3885;51.474;-2.576;2022-09-11T01:31:33;21.80;;;11.00;;
7685;SDS011;3885;51.474;-2.576;2022-09-11T01:34:07;17.77;;;9.80;;
7685;SDS011;3885;51.474;-2.576;2022-09-11T01:36:37;20.07;;;9.77;;
7685;SDS011;3885;51.474;-2.576;2022-09-11T01:39:06;13.13;;;8.13;;
7685;SDS011;3885;51.474;-2.576;2022-09-11T01:41:34;17.07;;;9.83;;
7685;SDS011;3885;51.474;-2.576;2022-09-11T01:44:07;16.70;;;10.40;;
7685;SDS011;3885;51.474;-2.576;2022-09-11T01:46:37;20.50;;;9.83;;
7685;SDS011;3885;51.474;-2.576;2022-09-11T01:49:07;15.77;;;8.20;;
7685;SDS011;3885;51.474;-2.576;2022-09-11T01:51:34;14.50;;;8.90;;
7685;SDS011;3885;51.474;-2.576;2022-09-11T01:54:06;23.53;;;10.07;;
7685;SDS011;3885;51.474;-2.576;2022-09-11T01:56:36;12.13;;;7.00;;
7685;SDS011;3885;51.474;-2.576;2022-09-11T01:59:08;11.93;;;5.67;;
7685;SDS011;3885;51.474;-2.576;2022-09-11T02:01:37;10.17;;;6.10;;
7685;SDS011;3885;51.474;-2.576;2022-09-11T02:04:09;16.77;;;6.33;;
7685;SDS011;3885;51.474;-2.576;2022-09-11T02:06:41;10.77;;;6.23;;
7685;SDS011;3885;51.474;-2.576;2022-09-11T02:09:09;7.50;;;4.87;;
7685;SDS011;3885;51.474;-2.576;2022-09-11T02:11:39;8.07;;;4.93;;
7685;SDS011;3885;51.474;-2.576;2022-09-11T02:14:12;14.70;;;5.57;;
7685;SDS011;3885;51.474;-2.576;2022-09-11T02:16:48;15.93;;;4.90;;
7685;SDS011;3885;51.474;-2.576;2022-09-11T02:19:16;7.03;;;5.10;;
7685;SDS011;3885;51.474;-2.576;2022-09-11T02:21:44;8.90;;;5.70;;
7685;SDS011;3885;51.474;-2.576;2022-09-11T02:24:13;10.23;;;6.50;;
7685;SDS011;3885;51.474;-2.576;2022-09-11T02:26:41;8.40;;;5.40;;
7685;SDS011;3885;51.474;-2.576;2022-09-11T02:29:11;9.13;;;5.37;;
7685;SDS011;3885;51.474;-2.576;2022-09-11T02:31:39;10.57;;;5.90;;
7685;SDS011;3885;51.474;-2.576;2022-09-11T02:34:07;9.13;;;5.70;;
7685;SDS011;3885;51.474;-2.576;2022-09-11T02:39:23;7.73;;;6.20;;
7685;SDS011;3885;51.474;-2.576;2022-09-11T02:42:03;11.00;;;5.43;;
7685;SDS011;3885;51.474;-2.576;2022-09-11T02:44:35;11.13;;;5.30;;
7685;SDS011;3885;51.474;-2.576;2022-09-11T02:47:07;9.53;;;5.43;;
7685;SDS011;3885;51.474;-2.576;2022-09-11T02:49:39;10.10;;;6.60;;
7685;SDS011;3885;51.474;-2.576;2022-09-11T02:52:10;11.40;;;5.80;;
7685;SDS011;3885;51.474;-2.576;2022-09-11T02:54:42;9.70;;;5.87;;
7685;SDS011;3885;51.474;-2.576;2022-09-11T02:57:13;12.17;;;6.50;;
7685;SDS011;3885;51.474;-2.576;2022-09-11T02:59:45;11.10;;;6.40;;
7685;SDS011;3885;51.474;-2.576;2022-09-11T03:02:16;14.93;;;7.00;;
7685;SDS011;3885;51.474;-2.576;2022-09-11T03:04:43;9.83;;;5.53;;
7685;SDS011;3885;51.474;-2.576;2022-09-11T03:07:12;12.23;;;6.03;;
7685;SDS011;3885;51.474;-2.576;2022-09-11T03:09:40;13.03;;;7.10;;
7685;SDS011;3885;51.474;-2.576;2022-09-11T03:12:07;13.53;;;6.43;;
7685;SDS011;3885;51.474;-2.576;2022-09-11T03:14:34;12.20;;;6.00;;
7685;SDS011;3885;51.474;-2.576;2022-09-11T03:17:03;15.23;;;7.37;;
7685;SDS011;3885;51.474;-2.576;2022-09-11T03:19:30;15.40;;;6.90;;
7685;SDS011;3885;51.474;-2.576;2022-09-11T03:21:58;9.83;;;5.37;;
7685;SDS011;3885;51.474;-2.576;2022-09-11T03:24:25;11.40;;;6.50;;
7685;SDS011;3885;51.474;-2.576;2022-09-11T03:26:52;10.00;;;5.33;;
7685;SDS011;3885;51.474;-2.576;2022-09-11T03:29:19;22.93;;;8.10;;
7685;SDS011;3885;51.474;-2.576;2022-09-11T03:31:46;11.60;;;6.30;;
7685;SDS011;3885;51.474;-2.576;2022-09-11T03:34:14;19.73;;;8.00;;
7685;SDS011;3885;51.474;-2.576;2022-09-11T03:36:43;10.40;;;6.47;;
7685;SDS011;3885;51.474;-2.576;2022-09-11T03:39:12;14.80;;;7.50;;
7685;SDS011;3885;51.474;-2.576;2022-09-11T03:41:39;14.03;;;6.90;;
7685;SDS011;3885;51.474;-2.576;2022-09-11T03:44:06;12.77;;;6.77;;
7685;SDS011;3885;51.474;-2.576;2022-09-11T03:46:33;13.40;;;6.70;;
7685;SDS011;3885;51.474;-2.576;2022-09-11T03:49:01;16.47;;;6.60;;
7685;SDS011;3885;51.474;-2.576;2022-09-11T03:51:29;19.40;;;8.43;;
7685;SDS011;3885;51.474;-2.576;2022-09-11T03:53:57;17.70;;;7.53;;
7685;SDS011;3885;51.474;-2.576;2022-09-11T03:56:25;10.40;;;6.57;;
7685;SDS011;3885;51.474;-2.576;2022-09-11T03:58:54;20.50;;;7.07;;
7685;SDS011;3885;51.474;-2.576;2022-09-11T04:01:22;12.43;;;7.47;;
7685;SDS011;3885;51.474;-2.576;2022-09-11T04:03:49;9.47;;;6.00;;
7685;SDS011;3885;51.474;-2.576;2022-09-11T04:06:17;10.73;;;6.67;;
7685;SDS011;3885;51.474;-2.576;2022-09-11T04:08:45;16.40;;;7.20;;
7685;SDS011;3885;51.474;-2.576;2022-09-11T04:11:13;10.10;;;6.33;;
7685;SDS011;3885;51.474;-2.576;2022-09-11T04:13:40;12.83;;;6.23;;
7685;SDS011;3885;51.474;-2.576;2022-09-11T04:16:09;14.40;;;5.90;;
7685;SDS011;3885;51.474;-2.576;2022-09-11T04:18:38;13.70;;;7.00;;
7685;SDS011;3885;51.474;-2.576;2022-09-11T04:21:06;12.90;;;6.23;;
7685;SDS011;3885;51.474;-2.576;2022-09-11T04:23:34;14.87;;;6.33;;
7685;SDS011;3885;51.474;-2.576;2022-09-11T04:26:03;13.10;;;6.73;;
7685;SDS011;3885;51.474;-2.576;2022-09-11T04:28:38;11.17;;;6.13;;
7685;SDS011;3885;51.474;-2.576;2022-09-11T04:31:05;12.17;;;6.83;;
7685;SDS011;3885;51.474;-2.576;2022-09-11T04:33:33;15.17;;;6.97;;
7685;SDS011;3885;51.474;-2.576;2022-09-11T04:36:02;9.77;;;6.40;;
7685;SDS011;3885;51.474;-2.576;2022-09-11T04:38:30;20.83;;;7.80;;
7685;SDS011;3885;51.474;-2.576;2022-09-11T04:40:58;14.90;;;5.97;;
7685;SDS011;3885;51.474;-2.576;2022-09-11T04:43:27;12.00;;;7.00;;
7685;SDS011;3885;51.474;-2.576;2022-09-11T04:45:58;12.27;;;6.27;;
7685;SDS011;3885;51.474;-2.576;2022-09-11T04:48:25;14.00;;;6.93;;
7685;SDS011;3885;51.474;-2.576;2022-09-11T04:50:57;14.50;;;6.83;;
7685;SDS011;3885;51.474;-2.576;2022-09-11T04:53:24;11.13;;;6.87;;
7685;SDS011;3885;51.474;-2.576;2022-09-11T04:55:59;13.77;;;7.20;;
7685;SDS011;3885;51.474;-2.576;2022-09-11T04:58:28;17.37;;;6.47;;
7685;SDS011;3885;51.474;-2.576;2022-09-11T05:00:55;11.80;;;6.67;;
7685;SDS011;3885;51.474;-2.576;2022-09-11T05:03:23;8.40;;;5.50;;
7685;SDS011;3885;51.474;-2.576;2022-09-11T05:05:50;15.97;;;6.77;;
7685;SDS011;3885;51.474;-2.576;2022-09-11T05:08:17;10.80;;;5.83;;
7685;SDS011;3885;51.474;-2.576;2022-09-11T05:10:44;10.93;;;5.50;;
7685;SDS011;3885;51.474;-2.576;2022-09-11T05:13:12;8.43;;;5.53;;
7685;SDS011;3885;51.474;-2.576;2022-09-11T05:15:41;9.20;;;5.97;;
7685;SDS011;3885;51.474;-2.576;2022-09-11T05:18:09;8.30;;;6.33;;
7685;SDS011;3885;51.474;-2.576;2022-09-11T05:20:36;11.43;;;5.33;;
7685;SDS011;3885;51.474;-2.576;2022-09-11T05:23:04;6.90;;;4.67;;
7685;SDS011;3885;51.474;-2.576;2022-09-11T05:25:32;14.03;;;5.57;;
7685;SDS011;3885;51.474;-2.576;2022-09-11T05:28:01;12.13;;;7.17;;
7685;SDS011;3885;51.474;-2.576;2022-09-11T05:30:28;9.97;;;5.77;;
7685;SDS011;3885;51.474;-2.576;2022-09-11T05:32:57;10.73;;;6.30;;
7685;SDS011;3885;51.474;-2.576;2022-09-11T05:35:24;11.23;;;5.77;;
7685;SDS011;3885;51.474;-2.576;2022-09-11T05:37:51;11.50;;;6.30;;
7685;SDS011;3885;51.474;-2.576;2022-09-11T05:40:19;21.80;;;7.20;;
7685;SDS011;3885;51.474;-2.576;2022-09-11T05:42:46;8.67;;;6.00;;
7685;SDS011;3885;51.474;-2.576;2022-09-11T05:45:13;15.50;;;7.03;;
7685;SDS011;3885;51.474;-2.576;2022-09-11T05:47:40;7.23;;;4.90;;
7685;SDS011;3885;51.474;-2.576;2022-09-11T05:50:09;7.93;;;5.93;;
7685;SDS011;3885;51.474;-2.576;2022-09-11T05:52:36;11.37;;;6.37;;
7685;SDS011;3885;51.474;-2.576;2022-09-11T05:55:03;18.30;;;6.87;;
7685;SDS011;3885;51.474;-2.576;2022-09-11T05:57:30;10.57;;;5.67;;
7685;SDS011;3885;51.474;-2.576;2022-09-11T05:59:57;9.80;;;5.20;;
7685;SDS011;3885;51.474;-2.576;2022-09-11T06:02:24;11.70;;;5.73;;
7685;SDS011;3885;51.474;-2.576;2022-09-11T06:04:52;12.90;;;6.27;;
7685;SDS011;3885;51.474;-2.576;2022-09-11T06:07:21;17.90;;;5.67;;
7685;SDS011;3885;51.474;-2.576;2022-09-11T06:09:50;9.00;;;4.80;;
7685;SDS011;3885;51.474;-2.576;2022-09-11T06:12:18;6.97;;;4.70;;
7685;SDS011;3885;51.474;-2.576;2022-09-11T06:14:45;7.23;;;5.53;;
7685;SDS011;3885;51.474;-2.576;2022-09-11T06:17:12;10.10;;;5.80;;
7685;SDS011;3885;51.474;-2.576;2022-09-11T06:19:39;11.20;;;5.70;;
7685;SDS011;3885;51.474;-2.576;2022-09-11T06:22:06;6.40;;;4.23;;
7685;SDS011;3885;51.474;-2.576;2022-09-11T06:24:35;9.90;;;5.20;;
7685;SDS011;3885;51.474;-2.576;2022-09-11T06:27:02;11.20;;;5.30;;
7685;SDS011;3885;51.474;-2.576;2022-09-11T06:29:29;5.67;;;4.50;;
7685;SDS011;3885;51.474;-2.576;2022-09-11T06:31:57;8.33;;;5.20;;
7685;SDS011;3885;51.474;-2.576;2022-09-11T06:34:24;7.33;;;4.93;;
7685;SDS011;3885;51.474;-2.576;2022-09-11T06:36:51;11.33;;;5.10;;
7685;SDS011;3885;51.474;-2.576;2022-09-11T06:39:18;8.47;;;5.17;;
7685;SDS011;3885;51.474;-2.576;2022-09-11T06:41:48;14.20;;;6.30;;
7685;SDS011;3885;51.474;-2.576;2022-09-11T06:44:18;9.00;;;4.93;;
7685;SDS011;3885;51.474;-2.576;2022-09-11T06:46:45;18.20;;;8.43;;
7685;SDS011;3885;51.474;-2.576;2022-09-11T06:49:12;9.90;;;6.27;;
7685;SDS011;3885;51.474;-2.576;2022-09-11T06:51:40;10.73;;;6.10;;
7685;SDS011;3885;51.474;-2.576;2022-09-11T06:54:07;12.03;;;6.20;;
7685;SDS011;3885;51.474;-2.576;2022-09-11T06:56:35;13.73;;;6.20;;
7685;SDS011;3885;51.474;-2.576;2022-09-11T06:59:04;14.20;;;7.33;;
7685;SDS011;3885;51.474;-2.576;2022-09-11T07:01:31;14.40;;;7.07;;
7685;SDS011;3885;51.474;-2.576;2022-09-11T07:03:58;14.03;;;7.77;;
7685;SDS011;3885;51.474;-2.576;2022-09-11T07:06:26;12.27;;;6.77;;
7685;SDS011;3885;51.474;-2.576;2022-09-11T07:08:55;15.13;;;7.60;;
7685;SDS011;3885;51.474;-2.576;2022-09-11T07:11:25;16.23;;;8.00;;
7685;SDS011;3885;51.474;-2.576;2022-09-11T07:13:53;13.57;;;7.33;;
7685;SDS011;3885;51.474;-2.576;2022-09-11T07:16:21;15.50;;;7.57;;
7685;SDS011;3885;51.474;-2.576;2022-09-11T07:18:49;13.77;;;8.07;;
7685;SDS011;3885;51.474;-2.576;2022-09-11T07:21:17;12.43;;;6.83;;
7685;SDS011;3885;51.474;-2.576;2022-09-11T07:23:45;12.03;;;7.40;;
7685;SDS011;3885;51.474;-2.576;2022-09-11T07:26:14;8.50;;;6.10;;
7685;SDS011;3885;51.474;-2.576;2022-09-11T07:28:41;9.50;;;5.63;;
7685;SDS011;3885;51.474;-2.576;2022-09-11T07:31:09;10.47;;;6.87;;
7685;SDS011;3885;51.474;-2.576;2022-09-11T07:33:38;11.23;;;6.40;;
7685;SDS011;3885;51.474;-2.576;2022-09-11T07:36:07;12.50;;;5.60;;
7685;SDS011;3885;51.474;-2.576;2022-09-11T07:38:35;7.53;;;5.23;;
7685;SDS011;3885;51.474;-2.576;2022-09-11T07:41:03;9.50;;;6.13;;
7685;SDS011;3885;51.474;-2.576;2022-09-11T07:43:30;11.03;;;6.90;;
7685;SDS011;3885;51.474;-2.576;2022-09-11T07:45:59;9.13;;;6.10;;
7685;SDS011;3885;51.474;-2.576;2022-09-11T07:48:26;13.20;;;5.90;;
7685;SDS011;3885;51.474;-2.576;2022-09-11T07:50:56;9.57;;;6.37;;
7685;SDS011;3885;51.474;-2.576;2022-09-11T07:53:25;8.50;;;5.90;;
7685;SDS011;3885;51.474;-2.576;2022-09-11T07:55:52;8.07;;;5.87;;
7685;SDS011;3885;51.474;-2.576;2022-09-11T07:58:20;9.43;;;6.67;;
7685;SDS011;3885;51.474;-2.576;2022-09-11T08:00:47;15.63;;;6.60;;
7685;SDS011;3885;51.474;-2.576;2022-09-11T08:03:14;9.73;;;6.40;;
7685;SDS011;3885;51.474;-2.576;2022-09-11T08:05:42;9.20;;;6.17;;
7685;SDS011;3885;51.474;-2.576;2022-09-11T08:08:10;9.10;;;5.73;;
7685;SDS011;3885;51.474;-2.576;2022-09-11T08:10:38;8.40;;;6.20;;
7685;SDS011;3885;51.474;-2.576;2022-09-11T08:13:05;9.90;;;7.50;;
7685;SDS011;3885;51.474;-2.576;2022-09-11T08:15:33;10.10;;;6.83;;
7685;SDS011;3885;51.474;-2.576;2022-09-11T08:18:01;16.13;;;7.73;;
7685;SDS011;3885;51.474;-2.576;2022-09-11T08:20:29;13.03;;;7.40;;
7685;SDS011;3885;51.474;-2.576;2022-09-11T08:22:56;10.07;;;7.97;;
7685;SDS011;3885;51.474;-2.576;2022-09-11T08:25:25;11.40;;;7.80;;
7685;SDS011;3885;51.474;-2.576;2022-09-11T08:27:53;10.73;;;7.37;;
7685;SDS011;3885;51.474;-2.576;2022-09-11T08:30:20;14.40;;;7.67;;
7685;SDS011;3885;51.474;-2.576;2022-09-11T08:32:47;14.10;;;7.33;;
7685;SDS011;3885;51.474;-2.576;2022-09-11T08:35:14;13.63;;;6.87;;
7685;SDS011;3885;51.474;-2.576;2022-09-11T08:37:41;10.40;;;6.70;;
7685;SDS011;3885;51.474;-2.576;2022-09-11T08:40:08;12.50;;;6.33;;
7685;SDS011;3885;51.474;-2.576;2022-09-11T08:42:37;8.40;;;6.13;;
7685;SDS011;3885;51.474;-2.576;2022-09-11T08:45:06;11.60;;;6.73;;
7685;SDS011;3885;51.474;-2.576;2022-09-11T08:47:38;14.57;;;6.40;;
7685;SDS011;3885;51.474;-2.576;2022-09-11T08:50:08;10.37;;;6.37;;
7685;SDS011;3885;51.474;-2.576;2022-09-11T08:52:37;8.97;;;5.37;;
7685;SDS011;3885;51.474;-2.576;2022-09-11T08:55:08;8.40;;;5.80;;
7685;SDS011;3885;51.474;-2.576;2022-09-11T08:57:39;10.03;;;6.20;;
7685;SDS011;3885;51.474;-2.576;2022-09-11T09:00:12;8.87;;;5.77;;
7685;SDS011;3885;51.474;-2.576;2022-09-11T09:02:45;9.53;;;6.00;;
7685;SDS011;3885;51.474;-2.576;2022-09-11T09:05:30;10.33;;;6.00;;
7685;SDS011;3885;51.474;-2.576;2022-09-11T09:08:03;5.83;;;5.23;;
7685;SDS011;3885;51.474;-2.576;2022-09-11T09:10:35;8.00;;;5.77;;
7685;SDS011;3885;51.474;-2.576;2022-09-11T09:13:08;15.23;;;5.70;;
7685;SDS011;3885;51.474;-2.576;2022-09-11T09:15:40;9.73;;;5.43;;
7685;SDS011;3885;51.474;-2.576;2022-09-11T09:18:13;7.03;;;4.47;;
7685;SDS011;3885;51.474;-2.576;2022-09-11T09:20:42;11.80;;;4.63;;
7685;SDS011;3885;51.474;-2.576;2022-09-11T09:23:12;7.30;;;4.57;;
7685;SDS011;3885;51.474;-2.576;2022-09-11T09:25:40;5.90;;;3.77;;
7685;SDS011;3885;51.474;-2.576;2022-09-11T09:28:13;8.80;;;4.37;;
7685;SDS011;3885;51.474;-2.576;2022-09-11T09:30:43;5.47;;;3.47;;
7685;SDS011;3885;51.474;-2.576;2022-09-11T09:33:17;3.37;;;3.00;;
7685;SDS011;3885;51.474;-2.576;2022-09-11T09:35:46;4.93;;;3.43;;
7685;SDS011;3885;51.474;-2.576;2022-09-11T09:38:14;5.27;;;3.70;;
7685;SDS011;3885;51.474;-2.576;2022-09-11T09:40:44;6.63;;;2.80;;
7685;SDS011;3885;51.474;-2.576;2022-09-11T09:43:21;9.07;;;3.47;;
7685;SDS011;3885;51.474;-2.576;2022-09-11T09:46:03;3.40;;;2.77;;
7685;SDS011;3885;51.474;-2.576;2022-09-11T09:48:34;4.40;;;2.77;;
7685;SDS011;3885;51.474;-2.576;2022-09-11T09:51:03;6.43;;;3.70;;
7685;SDS011;3885;51.474;-2.576;2022-09-11T09:53:32;3.63;;;2.67;;
7685;SDS011;3885;51.474;-2.576;2022-09-11T09:56:00;2.90;;;2.30;;
7685;SDS011;3885;51.474;-2.576;2022-09-11T09:58:31;5.97;;;2.80;;
7685;SDS011;3885;51.474;-2.576;2022-09-11T10:00:59;3.43;;;3.13;;
7685;SDS011;3885;51.474;-2.576;2022-09-11T10:03:26;4.87;;;3.17;;
7685;SDS011;3885;51.474;-2.576;2022-09-11T10:05:54;2.70;;;2.50;;
7685;SDS011;3885;51.474;-2.576;2022-09-11T10:08:23;3.00;;;2.33;;
7685;SDS011;3885;51.474;-2.576;2022-09-11T10:10:53;2.83;;;2.60;;
7685;SDS011;3885;51.474;-2.576;2022-09-11T10:13:21;3.80;;;2.40;;
7685;SDS011;3885;51.474;-2.576;2022-09-11T10:15:52;4.47;;;2.30;;
7685;SDS011;3885;51.474;-2.576;2022-09-11T10:18:20;7.13;;;3.40;;
7685;SDS011;3885;51.474;-2.576;2022-09-11T10:20:48;2.60;;;2.37;;
7685;SDS011;3885;51.474;-2.576;2022-09-11T10:23:22;7.37;;;2.53;;
7685;SDS011;3885;51.474;-2.576;2022-09-11T10:25:49;1.77;;;1.67;;
7685;SDS011;3885;51.474;-2.576;2022-09-11T10:28:18;3.20;;;1.90;;
7685;SDS011;3885;51.474;-2.576;2022-09-11T10:30:54;6.27;;;2.37;;
7685;SDS011;3885;51.474;-2.576;2022-09-11T10:33:24;4.87;;;1.50;;
7685;SDS011;3885;51.474;-2.576;2022-09-11T10:35:52;5.77;;;1.60;;
7685;SDS011;3885;51.474;-2.576;2022-09-11T10:38:20;2.00;;;1.80;;
7685;SDS011;3885;51.474;-2.576;2022-09-11T10:43:42;3.57;;;1.83;;
7685;SDS011;3885;51.474;-2.576;2022-09-11T10:46:24;1.00;;;1.00;;
7685;SDS011;3885;51.474;-2.576;2022-09-11T10:48:53;4.73;;;1.10;;
7685;SDS011;3885;51.474;-2.576;2022-09-11T10:51:21;1.23;;;1.20;;
7685;SDS011;3885;51.474;-2.576;2022-09-11T10:53:55;1.93;;;1.20;;
7685;SDS011;3885;51.474;-2.576;2022-09-11T10:56:23;2.20;;;1.30;;
7685;SDS011;3885;51.474;-2.576;2022-09-11T10:58:51;1.63;;;1.33;;
7685;SDS011;3885;51.474;-2.576;2022-09-11T11:01:21;1.83;;;1.00;;
7685;SDS011;3885;51.474;-2.576;2022-09-11T11:03:50;7.00;;;1.30;;
7685;SDS011;3885;51.474;-2.576;2022-09-11T11:06:20;1.53;;;1.10;;
7685;SDS011;3885;51.474;-2.576;2022-09-11T11:11:53;2.07;;;1.07;;
7685;SDS011;3885;51.474;-2.576;2022-09-11T11:14:33;1.53;;;1.43;;
7685;SDS011;3885;51.474;-2.576;2022-09-11T11:17:19;2.10;;;1.03;;
7685;SDS011;3885;51.474;-2.576;2022-09-11T11:19:56;1.33;;;0.83;;
7685;SDS011;3885;51.474;-2.576;2022-09-11T11:22:37;1.53;;;1.40;;
7685;SDS011;3885;51.474;-2.576;2022-09-11T11:25:18;3.50;;;1.57;;
7685;SDS011;3885;51.474;-2.576;2022-09-11T11:28:08;1.33;;;1.20;;
7685;SDS011;3885;51.474;-2.576;2022-09-11T11:30:40;1.27;;;1.17;;
7685;SDS011;3885;51.474;-2.576;2022-09-11T11:33:18;1.67;;;1.27;;
7685;SDS011;3885;51.474;-2.576;2022-09-11T11:35:52;3.50;;;1.40;;
7685;SDS011;3885;51.474;-2.576;2022-09-11T11:38:24;1.63;;;1.40;;
7685;SDS011;3885;51.474;-2.576;2022-09-11T11:40:57;1.17;;;1.10;;
7685;SDS011;3885;51.474;-2.576;2022-09-11T11:43:27;0.80;;;0.80;;
7685;SDS011;3885;51.474;-2.576;2022-09-11T11:45:56;1.50;;;1.40;;
7685;SDS011;3885;51.474;-2.576;2022-09-11T11:48:27;2.43;;;1.60;;
7685;SDS011;3885;51.474;-2.576;2022-09-11T11:50:58;1.73;;;0.93;;
7685;SDS011;3885;51.474;-2.576;2022-09-11T11:53:27;1.23;;;1.13;;
7685;SDS011;3885;51.474;-2.576;2022-09-11T11:56:03;3.17;;;1.20;;
7685;SDS011;3885;51.474;-2.576;2022-09-11T11:58:40;1.50;;;1.40;;
7685;SDS011;3885;51.474;-2.576;2022-09-11T12:01:10;2.83;;;1.50;;
7685;SDS011;3885;51.474;-2.576;2022-09-11T12:03:41;3.00;;;1.50;;
7685;SDS011;3885;51.474;-2.576;2022-09-11T12:06:15;2.03;;;1.23;;
7685;SDS011;3885;51.474;-2.576;2022-09-11T12:08:43;1.27;;;1.17;;
7685;SDS011;3885;51.474;-2.576;2022-09-11T12:11:10;1.07;;;1.00;;
7685;SDS011;3885;51.474;-2.576;2022-09-11T12:13:40;2.43;;;0.97;;
7685;SDS011;3885;51.474;-2.576;2022-09-11T12:16:12;0.87;;;0.87;;
7685;SDS011;3885;51.474;-2.576;2022-09-11T12:18:41;1.57;;;1.00;;
7685;SDS011;3885;51.474;-2.576;2022-09-11T12:24:18;3.27;;;0.90;;
7685;SDS011;3885;51.474;-2.576;2022-09-11T12:26:46;1.30;;;0.93;;
7685;SDS011;3885;51.474;-2.576;2022-09-11T12:35:02;1.10;;;0.70;;
7685;SDS011;3885;51.474;-2.576;2022-09-11T12:37:39;4.00;;;0.80;;
7685;SDS011;3885;51.474;-2.576;2022-09-11T12:40:12;1.30;;;0.93;;
7685;SDS011;3885;51.474;-2.576;2022-09-11T12:42:54;0.77;;;0.73;;
7685;SDS011;3885;51.474;-2.576;2022-09-11T12:45:31;1.10;;;1.00;;
7685;SDS011;3885;51.474;-2.576;2022-09-11T12:48:06;4.83;;;1.17;;
7685;SDS011;3885;51.474;-2.576;2022-09-11T12:50:36;1.90;;;0.80;;
7685;SDS011;3885;51.474;-2.576;2022-09-11T12:53:10;1.33;;;0.77;;
7685;SDS011;3885;51.474;-2.576;2022-09-11T12:55:47;2.43;;;0.90;;
7685;SDS011;3885;51.474;-2.576;2022-09-11T12:58:22;1.43;;;0.80;;
7685;SDS011;3885;51.474;-2.576;2022-09-11T13:00:59;0.77;;;0.77;;
7685;SDS011;3885;51.474;-2.576;2022-09-11T13:03:27;0.60;;;0.60;;
7685;SDS011;3885;51.474;-2.576;2022-09-11T13:05:56;2.20;;;0.70;;
7685;SDS011;3885;51.474;-2.576;2022-09-11T13:08:24;1.47;;;0.80;;
7685;SDS011;3885;51.474;-2.576;2022-09-11T13:13:40;5.00;;;0.83;;
7685;SDS011;3885;51.474;-2.576;2022-09-11T13:16:16;2.60;;;0.93;;
7685;SDS011;3885;51.474;-2.576;2022-09-11T13:18:43;1.27;;;0.70;;
7685;SDS011;3885;51.474;-2.576;2022-09-11T13:21:14;2.60;;;1.17;;
7685;SDS011;3885;51.474;-2.576;2022-09-11T13:23:43;1.07;;;0.80;;
7685;SDS011;3885;51.474;-2.576;2022-09-11T13:26:12;1.03;;;1.00;;
7685;SDS011;3885;51.474;-2.576;2022-09-11T13:28:43;1.43;;;0.90;;
7685;SDS011;3885;51.474;-2.576;2022-09-11T13:31:14;1.63;;;0.70;;
7685;SDS011;3885;51.474;-2.576;2022-09-11T13:33:45;2.20;;;0.97;;
7685;SDS011;3885;51.474;-2.576;2022-09-11T13:36:13;1.60;;;0.67;;
7685;SDS011;3885;51.474;-2.576;2022-09-11T13:38:42;1.03;;;0.90;;
7685;SDS011;3885;51.474;-2.576;2022-09-11T13:41:11;1.17;;;0.70;;
7685;SDS011;3885;51.474;-2.576;2022-09-11T13:43:40;1.23;;;0.80;;
7685;SDS011;3885;51.474;-2.576;2022-09-11T13:46:20;1.27;;;0.67;;
7685;SDS011;3885;51.474;-2.576;2022-09-11T13:48:49;2.30;;;0.63;;
7685;SDS011;3885;51.474;-2.576;2022-09-11T13:51:18;1.40;;;0.93;;
7685;SDS011;3885;51.474;-2.576;2022-09-11T13:53:54;2.57;;;0.97;;
7685;SDS011;3885;51.474;-2.576;2022-09-11T13:56:38;1.20;;;0.70;;
7685;SDS011;3885;51.474;-2.576;2022-09-11T14:01:56;0.80;;;0.80;;
7685;SDS011;3885;51.474;-2.576;2022-09-11T14:04:25;2.40;;;0.93;;
7685;SDS011;3885;51.474;-2.576;2022-09-11T14:06:53;2.40;;;0.80;;
7685;SDS011;3885;51.474;-2.576;2022-09-11T14:09:21;0.90;;;0.70;;
7685;SDS011;3885;51.474;-2.576;2022-09-11T14:11:48;2.50;;;1.00;;
7685;SDS011;3885;51.474;-2.576;2022-09-11T14:14:18;0.70;;;0.70;;
7685;SDS011;3885;51.474;-2.576;2022-09-11T14:16:48;1.10;;;1.00;;
7685;SDS011;3885;51.474;-2.576;2022-09-11T14:19:18;1.30;;;0.77;;
7685;SDS011;3885;51.474;-2.576;2022-09-11T14:21:47;1.70;;;0.70;;
7685;SDS011;3885;51.474;-2.576;2022-09-11T14:24:23;1.87;;;0.80;;
7685;SDS011;3885;51.474;-2.576;2022-09-11T14:26:51;1.00;;;0.70;;
7685;SDS011;3885;51.474;-2.576;2022-09-11T14:29:22;1.00;;;0.80;;
7685;SDS011;3885;51.474;-2.576;2022-09-11T14:31:49;2.33;;;0.70;;
7685;SDS011;3885;51.474;-2.576;2022-09-11T14:34:19;2.33;;;0.90;;
7685;SDS011;3885;51.474;-2.576;2022-09-11T14:36:48;1.33;;;0.83;;
7685;SDS011;3885;51.474;-2.576;2022-09-11T14:39:23;1.23;;;0.90;;
7685;SDS011;3885;51.474;-2.576;2022-09-11T14:41:51;0.70;;;0.60;;
7685;SDS011;3885;51.474;-2.576;2022-09-11T14:44:19;0.70;;;0.70;;
7685;SDS011;3885;51.474;-2.576;2022-09-11T14:46:48;4.40;;;1.10;;
7685;SDS011;3885;51.474;-2.576;2022-09-11T14:49:16;0.80;;;0.70;;
7685;SDS011;3885;51.474;-2.576;2022-09-11T14:51:44;1.20;;;1.00;;
7685;SDS011;3885;51.474;-2.576;2022-09-11T14:54:14;0.77;;;0.70;;
7685;SDS011;3885;51.474;-2.576;2022-09-11T14:56:43;0.60;;;0.53;;
7685;SDS011;3885;51.474;-2.576;2022-09-11T14:59:10;2.90;;;0.80;;
7685;SDS011;3885;51.474;-2.576;2022-09-11T15:01:38;1.37;;;0.80;;
7685;SDS011;3885;51.474;-2.576;2022-09-11T15:04:08;1.53;;;0.90;;
7685;SDS011;3885;51.474;-2.576;2022-09-11T15:06:37;0.77;;;0.77;;
7685;SDS011;3885;51.474;-2.576;2022-09-11T15:09:06;1.33;;;0.80;;
7685;SDS011;3885;51.474;-2.576;2022-09-11T15:11:33;0.67;;;0.67;;
7685;SDS011;3885;51.474;-2.576;2022-09-11T15:14:00;0.80;;;0.80;;
7685;SDS011;3885;51.474;-2.576;2022-09-11T15:16:27;0.93;;;0.77;;
7685;SDS011;3885;51.474;-2.576;2022-09-11T15:18:54;0.80;;;0.63;;
7685;SDS011;3885;51.474;-2.576;2022-09-11T15:21:22;1.10;;;0.80;;
7685;SDS011;3885;51.474;-2.576;2022-09-11T15:23:49;1.50;;;0.90;;
7685;SDS011;3885;51.474;-2.576;2022-09-11T15:26:17;3.37;;;0.90;;
7685;SDS011;3885;51.474;-2.576;2022-09-11T15:28:45;3.33;;;1.10;;
7685;SDS011;3885;51.474;-2.576;2022-09-11T15:31:14;0.87;;;0.80;;
7685;SDS011;3885;51.474;-2.576;2022-09-11T15:33:42;1.03;;;0.97;;